Time;durP1;ratioP1;P1;durP2;ratioP2;P2;SDS_P1;SDS_P2;PMS_P1;PMS_P2;Temp;Humidity;BMP_temperature;BMP_pressure;BME280_temperature;BME280_humidity;BME280_pressure;Samples;Min_cycle;Max_cycle;Signal;HPM_P1;HPM_P2
2022/09/12 00:02:00;;;;;;;2.60;0.30;;;;;;;19.99;100.00;99482.47;7391125;19;20006;-61
2022/09/12 00:04:27;;;;;;;0.63;0.38;;;;;;;20.01;100.00;99485.50;7391653;19;20459;-60
2022/09/12 00:06:53;;;;;;;0.90;0.47;;;;;;;19.96;100.00;99477.88;7390135;19;20463;-60
2022/09/12 00:09:19;;;;;;;0.22;0.13;;;;;;;19.95;100.00;99482.78;7390441;19;20006;-59
2022/09/12 00:11:46;;;;;;;0.88;0.38;;;;;;;19.92;100.00;99478.25;7390914;19;20069;-59
2022/09/12 00:14:14;;;;;;;0.63;0.40;;;;;;;19.88;100.00;99474.97;7390875;19;20031;-60
2022/09/12 00:16:42;;;;;;;1.65;0.30;;;;;;;19.93;100.00;99473.31;7390768;19;20011;-60
2022/09/12 00:19:10;;;;;;;2.45;0.35;;;;;;;19.86;100.00;99482.50;7389917;19;20018;-60
2022/09/12 00:21:38;;;;;;;1.80;0.77;;;;;;;19.87;100.00;99464.22;7388752;19;20015;-60
2022/09/12 00:24:05;;;;;;;0.70;0.20;;;;;;;19.84;100.00;99465.34;7391369;19;20036;-60
2022/09/12 00:26:31;;;;;;;3.30;0.55;;;;;;;19.86;100.00;99468.38;7389513;19;20101;-60
2022/09/12 00:28:58;;;;;;;0.20;0.10;;;;;;;19.80;100.00;99459.25;7389469;19;20022;-60
2022/09/12 00:31:25;;;;;;;0.35;0.28;;;;;;;19.79;100.00;99457.75;7389844;19;20023;-60
2022/09/12 00:33:54;;;;;;;1.50;0.13;;;;;;;19.76;100.00;99464.47;7387823;19;20018;-60
2022/09/12 00:36:22;;;;;;;2.40;0.50;;;;;;;19.76;100.00;99461.66;7389284;19;20475;-60
2022/09/12 00:38:49;;;;;;;1.35;0.40;;;;;;;19.79;100.00;99457.75;7389021;19;20035;-60
2022/09/12 00:41:19;;;;;;;1.70;0.70;;;;;;;19.84;100.00;99459.69;7391806;19;20010;-60
2022/09/12 00:44:09;;;;;;;0.57;0.17;;;;;;;19.79;100.00;99455.69;7388585;19;20041;-60
2022/09/12 00:46:52;;;;;;;0.40;0.10;;;;;;;19.81;100.00;99449.47;7387624;19;20022;-60
2022/09/12 00:49:27;;;;;;;5.03;0.30;;;;;;;19.88;100.00;99448.78;7389315;19;20017;-60
2022/09/12 00:51:59;;;;;;;0.68;0.43;;;;;;;19.71;100.00;99445.59;7389287;19;20011;-61
2022/09/12 00:54:31;;;;;;;0.47;0.15;;;;;;;19.64;100.00;99444.94;7390463;19;20011;-60
2022/09/12 00:57:01;;;;;;;1.95;0.52;;;;;;;19.64;100.00;99447.78;7388797;19;20032;-60
2022/09/12 00:59:49;;;;;;;0.67;0.50;;;;;;;19.65;100.00;99442.88;7387439;19;20018;-61
2022/09/12 01:02:16;;;;;;;1.58;0.40;;;;;;;19.61;100.00;99443.22;7388288;19;20393;-60
2022/09/12 01:04:43;;;;;;;0.57;0.30;;;;;;;19.59;100.00;99439.44;7390724;19;20010;-60
2022/09/12 01:07:10;;;;;;;1.45;0.40;;;;;;;19.56;100.00;99441.28;7388889;19;20010;-60
2022/09/12 01:09:37;;;;;;;5.78;0.80;;;;;;;19.50;100.00;99437.06;7389668;19;20463;-60
2022/09/12 01:12:04;;;;;;;1.92;0.60;;;;;;;19.43;100.00;99432.84;7387751;19;20013;-61
2022/09/12 01:14:31;;;;;;;0.73;0.30;;;;;;;19.41;100.00;99432.63;7388684;19;20811;-60
2022/09/12 01:16:57;;;;;;;2.58;0.63;;;;;;;19.39;100.00;99432.44;7387045;19;20018;-60
2022/09/12 01:19:38;;;;;;;1.65;0.20;;;;;;;19.34;100.00;99441.75;7387254;19;20011;-61
2022/09/12 01:22:34;;;;;;;3.97;0.88;;;;;;;19.35;100.00;99437.66;7387894;19;20036;-60
2022/09/12 01:25:19;;;;;;;1.08;0.40;;;;;;;19.29;100.00;99431.34;7391330;19;20015;-60
2022/09/12 01:28:13;;;;;;;4.65;1.67;;;;;;;19.29;100.00;99422.88;7388354;19;20047;-60
2022/09/12 01:30:54;;;;;;;0.30;0.17;;;;;;;19.38;100.00;99425.25;7388201;19;20031;-60
2022/09/12 01:33:38;;;;;;;1.00;0.43;;;;;;;19.29;100.00;99417.22;7386565;19;20018;-61
2022/09/12 01:36:28;;;;;;;1.08;0.70;;;;;;;19.25;100.00;99411.13;7392361;19;20014;-60
2022/09/12 01:39:04;;;;;;;2.92;0.60;;;;;;;19.26;100.00;99414.72;7387634;19;20070;-61
2022/09/12 01:41:48;;;;;;;1.30;0.85;;;;;;;19.27;100.00;99414.19;7390444;19;20388;-60
2022/09/12 01:44:17;;;;;;;1.58;0.65;;;;;;;19.27;100.00;99411.38;7387037;19;20017;-60
2022/09/12 01:47:07;;;;;;;0.88;0.30;;;;;;;19.22;100.00;99420.69;7387436;19;20070;-60
2022/09/12 01:50:00;;;;;;;2.30;0.63;;;;;;;19.21;100.00;99422.00;7386124;19;20014;-59
2022/09/12 01:53:02;;;;;;;2.13;0.85;;;;;;;19.15;100.00;99417.78;7389764;19;20021;-60
2022/09/12 01:55:43;;;;;;;1.70;0.50;;;;;;;19.23;100.00;99413.75;7394317;19;20002;-60
2022/09/12 01:58:58;;;;;;;5.22;0.30;;;;;;;19.32;100.00;99421.75;7393846;19;20015;-62
2022/09/12 02:01:28;;;;;;;2.70;0.77;;;;;;;19.31;100.00;99408.97;7393476;19;20006;-61
2022/09/12 02:03:58;;;;;;;1.95;0.40;;;;;;;19.31;100.00;99420.25;7394677;19;20006;-62
2022/09/12 02:06:30;;;;;;;2.45;0.75;;;;;;;19.31;100.00;99420.25;7393867;19;20032;-61
2022/09/12 02:09:02;;;;;;;1.95;0.80;;;;;;;19.33;100.00;99417.66;7394198;19;20025;-62
2022/09/12 02:11:31;;;;;;;1.08;0.50;;;;;;;19.27;100.00;99414.19;7399593;19;20006;-62
2022/09/12 02:14:05;;;;;;;1.02;0.30;;;;;;;19.25;100.00;99416.78;7393280;19;20017;-59
2022/09/12 02:16:43;;;;;;;3.03;0.65;;;;;;;19.05;100.00;99403.38;7393973;19;20257;-62
2022/09/12 02:19:16;;;;;;;2.13;0.57;;;;;;;18.87;100.00;99415.53;7393170;19;20366;-62
2022/09/12 02:21:58;;;;;;;5.38;0.90;;;;;;;18.82;100.00;99410.75;7392759;19;20379;-62
2022/09/12 02:24:30;;;;;;;1.77;0.40;;;;;;;18.86;100.00;99411.19;7398521;19;20007;-62
2022/09/12 02:27:05;;;;;;;1.17;0.35;;;;;;;18.93;100.00;99408.47;7393746;19;20078;-62
2022/09/12 02:29:32;;;;;;;1.35;0.25;;;;;;;19.22;100.00;99400.94;7392253;19;20096;-62
2022/09/12 02:32:10;;;;;;;3.40;0.95;;;;;;;19.40;100.00;99391.59;7393714;19;20010;-62
2022/09/12 02:34:48;;;;;;;3.20;0.90;;;;;;;19.48;100.00;99398.06;7392780;19;20099;-60
2022/09/12 02:37:36;;;;;;;1.98;1.02;;;;;;;19.50;100.00;99392.63;7394221;19;20014;-59
2022/09/12 02:40:02;;;;;;;3.00;0.65;;;;;;;19.49;100.00;99391.09;7393830;19;20731;-61
2022/09/12 02:42:28;;;;;;;1.63;0.30;;;;;;;19.66;100.00;99394.28;7394175;19;20014;-61
2022/09/12 02:44:56;;;;;;;1.40;0.90;;;;;;;19.66;100.00;99394.28;7394688;19;20021;-62
2022/09/12 02:47:30;;;;;;;6.70;0.90;;;;;;;19.67;100.00;99392.25;7392074;19;20010;-62
2022/09/12 02:49:58;;;;;;;3.13;0.70;;;;;;;19.68;100.00;99380.38;7393338;19;20018;-59
2022/09/12 02:52:26;;;;;;;3.10;0.52;;;;;;;19.74;100.00;99379.50;7392341;19;20045;-61
2022/09/12 02:54:54;;;;;;;0.98;0.70;;;;;;;19.72;100.00;99384.94;7395503;19;20018;-61
2022/09/12 02:57:21;;;;;;;2.40;0.60;;;;;;;19.65;100.00;99389.22;7392525;19;20006;-61
2022/09/12 02:59:48;;;;;;;2.38;1.20;;;;;;;19.60;100.00;99385.19;7392037;19;20007;-61
2022/09/12 03:02:36;;;;;;;3.95;1.45;;;;;;;19.61;100.00;99386.72;7393023;19;20019;-61
2022/09/12 03:05:16;;;;;;;6.68;0.95;;;;;;;19.63;100.00;99389.75;7393965;19;20048;-60
2022/09/12 03:07:54;;;;;;;2.20;0.70;;;;;;;19.58;100.00;99393.47;7392867;19;20023;-60
2022/09/12 03:10:38;;;;;;;10.10;1.38;;;;;;;19.63;100.00;99389.00;7394623;19;20232;-60
2022/09/12 03:13:36;;;;;;;1.40;0.52;;;;;;;19.66;100.00;99388.66;7392613;19;20045;-61
2022/09/12 03:16:22;;;;;;;3.60;1.17;;;;;;;19.59;100.00;99383.69;7395806;19;20324;-61
2022/09/12 03:19:02;;;;;;;3.72;0.80;;;;;;;19.56;100.00;99384.78;7391866;19;20040;-61
2022/09/12 03:21:53;;;;;;;3.83;1.23;;;;;;;19.60;100.00;99388.03;7391050;19;20002;-61
2022/09/12 03:24:23;;;;;;;;;;;;;;;19.60;100.00;99384.44;7395299;19;20007;-61
2022/09/12 03:27:13;;;;;;;2.85;1.38;;;;;;;19.57;100.00;99382.72;7391461;19;19915;-62
2022/09/12 03:29:40;;;;;;;2.58;0.95;;;;;;;19.55;100.00;99380.47;7391512;19;20040;-62
2022/09/12 03:32:06;;;;;;;2.10;0.70;;;;;;;19.50;100.00;99381.34;7391604;19;20014;-62
2022/09/12 03:34:32;;;;;;;5.38;1.35;;;;;;;19.55;100.00;99382.53;7392800;19;20014;-62
2022/09/12 03:36:59;;;;;;;7.13;0.80;;;;;;;19.54;100.00;99376.09;7392006;19;20343;-62
2022/09/12 03:39:26;;;;;;;2.38;0.68;;;;;;;19.55;100.00;99377.63;7391084;19;20018;-63
2022/09/12 03:41:54;;;;;;;5.60;1.48;;;;;;;19.59;100.00;99371.63;7391105;19;20021;-62
2022/09/12 03:44:21;;;;;;;3.10;0.95;;;;;;;19.61;100.00;99363.38;7391478;19;20007;-62
2022/09/12 03:46:47;;;;;;;2.85;0.85;;;;;;;19.53;100.00;99362.53;7390812;19;20006;-62
2022/09/12 03:49:13;;;;;;;3.03;0.80;;;;;;;19.54;100.00;99367.63;7390601;19;20395;-62
2022/09/12 03:51:39;;;;;;;1.23;0.50;;;;;;;19.51;100.00;99359.50;7390496;19;20011;-62
2022/09/12 03:54:06;;;;;;;2.17;0.88;;;;;;;19.47;100.00;99361.88;7390942;19;20031;-63
2022/09/12 03:56:32;;;;;;;4.93;0.95;;;;;;;19.44;100.00;99360.94;7391041;19;20037;-62
2022/09/12 03:58:58;;;;;;;2.38;0.43;;;;;;;19.46;100.00;99352.69;7389743;19;20343;-63
2022/09/12 04:01:24;;;;;;;1.35;0.63;;;;;;;19.37;100.00;99358.78;7390224;19;20103;-63
2022/09/12 04:03:51;;;;;;;2.72;0.95;;;;;;;19.44;100.00;99354.53;7390455;19;20017;-62
2022/09/12 04:06:20;;;;;;;1.55;0.55;;;;;;;19.43;100.00;99356.59;7390438;19;20463;-61
2022/09/12 04:08:51;;;;;;;3.42;0.90;;;;;;;19.43;100.00;99359.41;7390599;19;20038;-62
2022/09/12 04:11:20;;;;;;;2.08;0.93;;;;;;;19.46;100.00;99347.03;7393979;19;20026;-62
2022/09/12 04:13:47;;;;;;;2.08;0.80;;;;;;;19.45;100.00;99345.50;7390619;19;20027;-62
2022/09/12 04:16:15;;;;;;;3.28;0.80;;;;;;;19.49;100.00;99340.25;7388646;19;20016;-62
2022/09/12 04:18:42;;;;;;;1.92;0.70;;;;;;;19.61;100.00;99340.75;7389828;19;20011;-61
2022/09/12 04:21:11;;;;;;;0.63;0.63;;;;;;;19.75;100.00;99333.00;7387146;19;20018;-62
2022/09/12 04:23:37;;;;;;;5.13;1.23;;;;;;;19.77;100.00;99333.19;7392304;19;20325;-62
2022/09/12 04:26:07;;;;;;;2.70;1.15;;;;;;;19.87;100.00;99331.38;7394295;19;20095;-62
2022/09/12 04:28:35;;;;;;;1.95;0.80;;;;;;;19.94;100.00;99333.53;7389822;19;20352;-62
2022/09/12 04:31:06;;;;;;;1.63;0.77;;;;;;;19.91;100.00;99332.56;7389861;19;20011;-61
2022/09/12 04:33:33;;;;;;;7.35;1.30;;;;;;;19.96;100.00;99336.56;7389869;19;20018;-61
2022/09/12 04:36:08;;;;;;;3.03;0.93;;;;;;;19.89;100.00;99337.25;7393754;19;20011;-62
2022/09/12 04:38:35;;;;;;;3.42;0.70;;;;;;;19.88;100.00;99347.06;7389054;19;20027;-62
2022/09/12 04:41:18;;;;;;;2.25;1.02;;;;;;;19.68;100.00;99346.47;7392275;19;20462;-62
2022/09/12 04:43:45;;;;;;;3.03;0.70;;;;;;;19.60;100.00;99342.81;7389871;19;20006;-61
2022/09/12 04:46:14;;;;;;;1.35;1.00;;;;;;;19.52;100.00;99344.06;7393149;19;20455;-60
2022/09/12 04:48:41;;;;;;;2.67;0.43;;;;;;;19.44;100.00;99341.19;7388725;19;20014;-60
2022/09/12 04:51:17;;;;;;;1.55;0.90;;;;;;;19.39;100.00;99335.63;7389359;19;20015;-60
2022/09/12 04:53:47;;;;;;;5.28;0.50;;;;;;;19.42;100.00;99335.31;7389341;19;20007;-60
2022/09/12 04:56:14;;;;;;;2.72;0.38;;;;;;;19.48;100.00;99346.47;7387536;19;20025;-62
2022/09/12 04:58:40;;;;;;;2.72;0.77;;;;;;;19.58;100.00;99336.97;7388972;19;20109;-61
2022/09/12 05:01:12;;;;;;;2.53;1.15;;;;;;;19.56;100.00;99336.00;7387504;19;20010;-60
2022/09/12 05:03:42;;;;;;;5.75;1.60;;;;;;;19.49;100.00;99337.44;7388803;19;20035;-62
2022/09/12 05:06:14;;;;;;;4.20;1.00;;;;;;;19.40;100.00;99340.75;7393234;19;20619;-62
2022/09/12 05:08:41;;;;;;;3.92;0.73;;;;;;;19.40;100.00;99335.13;7388557;19;20011;-61
2022/09/12 05:11:12;;;;;;;3.70;1.20;;;;;;;19.52;100.00;99330.69;7393080;19;20047;-61
2022/09/12 05:13:39;;;;;;;2.17;0.68;;;;;;;19.55;100.00;99332.44;7387308;19;20347;-61
2022/09/12 05:16:06;;;;;;;0.52;0.45;;;;;;;19.55;100.00;99340.91;7392642;19;20018;-62
2022/09/12 05:18:33;;;;;;;3.67;0.75;;;;;;;19.53;100.00;99340.69;7388745;19;20014;-62
2022/09/12 05:21:01;;;;;;;4.53;1.05;;;;;;;19.54;100.00;99347.84;7386859;19;20014;-61
2022/09/12 05:23:27;;;;;;;0.85;0.60;;;;;;;19.60;100.00;99345.66;7389238;19;20019;-61
2022/09/12 05:25:56;;;;;;;1.90;0.57;;;;;;;19.87;100.00;99345.53;7391662;19;20022;-61
2022/09/12 05:28:24;;;;;;;0.90;0.57;;;;;;;19.95;100.00;99340.69;7391459;19;20411;-61
2022/09/12 05:31:01;;;;;;;3.95;1.35;;;;;;;19.94;100.00;99339.19;7395755;19;20027;-61
2022/09/12 05:33:28;;;;;;;2.25;1.33;;;;;;;19.96;100.00;99342.22;7394796;19;20014;-61
2022/09/12 05:35:54;;;;;;;8.77;0.95;;;;;;;20.16;100.00;99335.78;7398928;19;20010;-61
2022/09/12 05:38:22;;;;;;;0.98;0.73;;;;;;;20.28;100.00;99339.84;7394820;19;20013;-62
2022/09/12 05:40:48;;;;;;;2.72;1.10;;;;;;;20.61;100.00;99338.94;7396373;19;20014;-61
2022/09/12 05:43:14;;;;;;;4.68;1.35;;;;;;;20.71;100.00;99337.09;7394508;19;20014;-62
2022/09/12 05:45:41;;;;;;;3.88;1.17;;;;;;;20.73;100.00;99334.47;7396467;19;20010;-60
2022/09/12 05:48:07;;;;;;;1.77;0.93;;;;;;;20.71;100.00;99342.75;7394779;19;20011;-61
2022/09/12 05:50:33;;;;;;;2.20;0.90;;;;;;;20.77;100.00;99334.13;7393105;19;20360;-62
2022/09/12 05:52:59;;;;;;;1.10;0.50;;;;;;;20.61;100.00;99335.34;7393292;19;20015;-62
2022/09/12 05:55:26;;;;;;;2.25;1.08;;;;;;;20.50;100.00;99339.25;7395595;19;20021;-60
2022/09/12 05:57:52;;;;;;;4.90;1.27;;;;;;;20.37;100.00;99337.28;7394433;19;20010;-59
2022/09/12 06:00:19;;;;;;;2.40;0.73;;;;;;;20.27;100.00;99341.16;7393462;19;20018;-59
2022/09/12 06:02:52;;;;;;;3.58;0.68;;;;;;;20.13;100.00;99334.06;7393869;19;20021;-59
2022/09/12 06:05:18;;;;;;;4.47;1.13;;;;;;;19.97;100.00;99335.22;7397445;19;20019;-59
2022/09/12 06:07:46;;;;;;;2.30;0.77;;;;;;;19.88;100.00;99339.31;7394850;19;20013;-59
2022/09/12 06:10:12;;;;;;;1.70;0.65;;;;;;;19.92;100.00;99330.50;7394226;19;20011;-59
2022/09/12 06:12:38;;;;;;;2.05;0.82;;;;;;;19.92;100.00;99336.16;7395101;19;20477;-59
2022/09/12 06:15:05;;;;;;;0.45;0.40;;;;;;;20.01;100.00;99332.84;7395355;19;20060;-59
2022/09/12 06:17:31;;;;;;;3.55;1.38;;;;;;;20.03;100.00;99333.78;7394212;19;20074;-61
2022/09/12 06:19:57;;;;;;;1.23;1.05;;;;;;;20.11;100.00;99336.69;7392257;19;20089;-61
2022/09/12 06:22:24;;;;;;;5.45;1.88;;;;;;;20.20;100.00;99324.88;7394738;19;20014;-61
2022/09/12 06:24:50;;;;;;;1.63;0.90;;;;;;;20.21;100.00;99329.22;7395615;19;20094;-61
2022/09/12 06:27:17;;;;;;;3.67;1.25;;;;;;;20.17;100.00;99334.44;7392413;19;20007;-61
2022/09/12 06:29:43;;;;;;;4.78;0.55;;;;;;;20.08;100.00;99337.78;7393423;19;20485;-61
2022/09/12 06:32:10;;;;;;;5.30;0.40;;;;;;;20.23;100.00;99338.69;7394794;19;20428;-61
2022/09/12 06:34:36;;;;;;;2.90;1.65;;;;;;;20.38;100.00;99343.66;7395677;19;20018;-61
2022/09/12 06:37:02;;;;;;;2.05;0.93;;;;;;;20.54;100.00;99338.88;7396668;19;20010;-60
2022/09/12 06:39:30;;;;;;;3.88;0.40;;;;;;;20.73;100.00;99337.28;7392552;19;20459;-60
2022/09/12 06:41:56;;;;;;;1.70;0.32;;;;;;;20.99;100.00;99342.69;7393172;19;20018;-60
2022/09/12 06:44:32;;;;;;;2.15;0.90;;;;;;;20.97;100.00;99341.72;7393326;19;20010;-60
2022/09/12 06:46:58;;;;;;;4.30;0.45;;;;;;;20.83;100.00;99348.84;7391596;19;20026;-60
2022/09/12 06:49:25;;;;;;;3.03;0.75;;;;;;;20.75;100.00;99343.13;7393510;19;20010;-60
2022/09/12 06:51:51;;;;;;;5.10;1.27;;;;;;;20.75;100.00;99342.38;7392068;19;20017;-60
2022/09/12 06:54:18;;;;;;;1.75;0.40;;;;;;;20.86;100.00;99348.47;7392005;19;20007;-59
2022/09/12 06:56:45;;;;;;;3.60;0.75;;;;;;;20.80;100.00;99344.31;7392322;19;20035;-59
2022/09/12 06:59:11;;;;;;;3.05;0.85;;;;;;;20.67;100.00;99339.53;7392241;19;20018;-59
2022/09/12 07:01:38;;;;;;;2.00;0.70;;;;;;;20.75;100.00;99331.81;7392465;19;20018;-59
2022/09/12 07:04:05;;;;;;;0.57;0.50;;;;;;;21.11;100.00;99343.16;7391144;19;20010;-58
2022/09/12 07:06:37;;;;;;;2.10;0.80;;;;;;;21.32;100.00;99340.19;7391398;19;20018;-58
2022/09/12 07:09:05;;;;;;;1.80;0.57;;;;;;;21.28;100.00;99336.97;7392309;19;20015;-59
2022/09/12 07:11:35;;;;;;;3.15;0.65;;;;;;;21.33;100.00;99338.88;7396566;19;20014;-58
2022/09/12 07:14:03;;;;;;;1.52;0.65;;;;;;;21.37;100.00;99333.59;7391696;19;20014;-59
2022/09/12 07:16:30;;;;;;;2.60;0.63;;;;;;;21.44;100.00;99330.78;7391513;19;20010;-60
2022/09/12 07:18:59;;;;;;;2.58;0.68;;;;;;;21.61;100.00;99335.91;7391596;19;20011;-60
2022/09/12 07:21:27;;;;;;;1.38;0.30;;;;;;;21.52;100.00;99336.47;7390574;19;20106;-61
2022/09/12 07:23:59;;;;;;;1.33;0.65;;;;;;;21.60;100.00;99340.06;7394128;19;20474;-61
2022/09/12 07:26:27;;;;;;;1.92;0.65;;;;;;;21.67;100.00;99339.31;7391063;19;20329;-61
2022/09/12 07:28:55;;;;;;;6.53;1.23;;;;;;;21.69;100.00;99333.84;7391172;19;20015;-62
2022/09/12 07:31:23;;;;;;;2.42;1.02;;;;;;;21.78;100.00;99330.44;7391200;19;20022;-62
2022/09/12 07:33:50;;;;;;;1.42;0.65;;;;;;;21.75;100.00;99332.34;7391275;19;20011;-62
2022/09/12 07:36:19;;;;;;;2.50;1.20;;;;;;;21.93;100.00;99341.06;7391027;19;20022;-62
2022/09/12 07:38:45;;;;;;;2.88;0.80;;;;;;;21.98;100.00;99335.22;7389358;19;20035;-62
2022/09/12 07:41:20;;;;;;;1.95;0.63;;;;;;;21.79;100.00;99351.78;7394456;19;20007;-62
2022/09/12 07:43:47;;;;;;;1.60;0.82;;;;;;;21.88;100.00;99343.53;7390861;19;20021;-62
2022/09/12 07:46:13;;;;;;;2.58;0.88;;;;;;;22.11;100.00;99345.63;7395626;19;20074;-62
2022/09/12 07:48:40;;;;;;;3.25;1.25;;;;;;;22.30;100.00;99352.41;7390789;19;20471;-61
2022/09/12 07:51:08;;;;;;;1.58;0.68;;;;;;;22.40;100.00;99344.81;7388369;19;20014;-61
2022/09/12 07:53:37;;;;;;;2.20;0.30;;;;;;;22.65;100.00;99342.16;7390907;19;20347;-61
2022/09/12 07:56:05;;;;;;;5.50;0.73;;;;;;;22.84;100.00;99338.88;7395222;19;20018;-61
2022/09/12 07:58:33;;;;;;;1.73;0.40;;;;;;;22.99;100.00;99338.81;7388881;19;20014;-61
2022/09/12 08:01:03;;;;;;;3.70;0.77;;;;;;;22.78;100.00;99341.94;7389501;19;20006;-61
2022/09/12 08:03:29;;;;;;;5.85;0.68;;;;;;;22.84;100.00;99341.72;7389326;19;20016;-60
2022/09/12 08:06:04;;;;;;;1.55;0.57;;;;;;;22.73;100.00;99342.13;7394706;19;20021;-60
2022/09/12 08:08:30;;;;;;;2.58;0.60;;;;;;;22.75;100.00;99347.97;7390415;19;20026;-60
2022/09/12 08:11:00;;;;;;;1.55;0.38;;;;;;;22.89;100.00;99335.81;7394344;19;20015;-60
2022/09/12 08:13:29;;;;;;;2.15;0.55;;;;;;;23.15;100.00;99334.59;7390853;19;20022;-59
2022/09/12 08:15:59;;;;;;;3.15;1.13;;;;;;;23.43;100.00;99331.44;7391268;19;20082;-57
2022/09/12 08:18:27;;;;;;;1.85;1.02;;;;;;;23.48;100.00;99333.28;7388380;19;20070;-57
2022/09/12 08:21:03;;;;;;;5.28;0.75;;;;;;;23.68;100.00;99335.06;7388655;19;20014;-59
2022/09/12 08:23:30;;;;;;;2.67;0.57;;;;;;;23.74;100.00;99331.97;7391769;19;20003;-59
2022/09/12 08:26:02;;;;;;;2.83;0.65;;;;;;;23.98;100.00;99322.69;7393479;19;20035;-56
2022/09/12 08:28:30;;;;;;;4.22;1.40;;;;;;;24.07;100.00;99330.59;7388866;19;20471;-56
2022/09/12 08:31:04;;;;;;;4.25;0.35;;;;;;;24.02;100.00;99335.16;7389339;19;20006;-55
2022/09/12 08:33:32;;;;;;;0.88;0.30;;;;;;;23.89;100.00;99338.31;7389250;19;20014;-58
2022/09/12 08:36:06;;;;;;;2.65;0.60;;;;;;;23.91;100.00;99338.47;7393548;19;20360;-58
2022/09/12 08:38:37;;;;;;;0.93;0.50;;;;;;;22.92;100.00;99345.28;7388687;19;20021;-58
2022/09/12 08:41:29;;;;;;;1.27;0.65;;;;;;;22.97;100.00;99341.47;7390925;19;20010;-55
2022/09/12 08:44:26;;;;;;;2.58;0.75;;;;;;;22.97;100.00;99350.00;7388941;19;20337;-56
2022/09/12 08:46:52;;;;;;;3.53;0.63;;;;;;;23.08;100.00;99341.06;7389273;19;20010;-58
2022/09/12 08:49:28;;;;;;;0.80;0.30;;;;;;;23.33;100.00;99341.91;7389403;19;20021;-59
2022/09/12 08:51:58;;;;;;;1.42;0.40;;;;;;;23.37;100.00;99339.41;7388303;19;20018;-56
2022/09/12 08:54:27;;;;;;;2.77;0.50;;;;;;;23.82;100.00;99332.69;7390131;19;20019;-56
2022/09/12 08:57:00;;;;;;;0.65;0.57;;;;;;;23.94;100.00;99333.72;7386919;19;20011;-56
2022/09/12 08:59:36;;;;;;;0.20;0.10;;;;;;;23.87;100.00;99335.28;7388297;19;20025;-56
2022/09/12 09:02:14;;;;;;;2.67;0.57;;;;;;;23.94;100.00;99334.47;7392682;19;20077;-55
2022/09/12 09:04:54;;;;;;;3.50;0.68;;;;;;;24.03;100.00;99331.00;7396802;19;20019;-55
2022/09/12 09:07:32;;;;;;;3.13;0.20;;;;;;;24.07;100.00;99337.06;7394902;19;20014;-55
2022/09/12 09:10:20;;;;;;;2.42;0.85;;;;;;;24.02;100.00;99335.16;7396545;19;20011;-58
2022/09/12 09:16:29;;;;;;;2.17;0.60;;;;;;;24.05;100.00;99333.28;7391556;19;20026;-57
2022/09/12 09:18:59;;;;;;;3.80;0.63;;;;;;;24.21;100.00;99333.91;7394440;19;20017;-57
2022/09/12 09:21:31;;;;;;;2.78;0.32;;;;;;;24.35;100.00;99333.00;7393431;19;20091;-58
2022/09/12 09:24:04;;;;;;;0.30;0.20;;;;;;;24.44;100.00;99337.28;7398904;19;20035;-57
2022/09/12 09:26:40;;;;;;;0.98;0.60;;;;;;;24.52;100.00;99335.09;7396377;19;20006;-57
2022/09/12 09:29:17;;;;;;;1.27;0.30;;;;;;;24.77;100.00;99332.97;7395335;19;20535;-58
2022/09/12 09:31:47;;;;;;;1.13;0.68;;;;;;;25.04;100.00;99336.63;7395005;19;20021;-57
2022/09/12 09:34:22;;;;;;;2.53;0.68;;;;;;;25.17;100.00;99341.97;7396034;19;20108;-58
2022/09/12 09:36:51;;;;;;;1.58;0.50;;;;;;;25.16;100.00;99334.78;7395775;19;20388;-58
2022/09/12 09:39:31;;;;;;;0.82;0.30;;;;;;;25.24;100.00;99335.41;7394051;19;20010;-58
2022/09/12 09:42:03;;;;;;;0.68;0.20;;;;;;;25.34;100.00;99339.06;7394682;19;20014;-57
2022/09/12 09:44:30;;;;;;;2.72;0.43;;;;;;;25.37;100.00;99340.75;7396978;19;20007;-57
2022/09/12 09:46:58;;;;;;;0.57;0.25;;;;;;;25.44;100.00;99342.03;7394093;19;20010;-57
2022/09/12 09:49:29;;;;;;;2.55;0.77;;;;;;;25.27;100.00;99348.50;7395403;19;20010;-57
2022/09/12 09:51:56;;;;;;;;;;;;;;;25.48;100.00;99343.09;7394516;19;20014;-57
2022/09/12 09:54:50;;;;;;;0.80;0.30;;;;;;;25.53;100.00;99355.59;7395357;19;20020;-58
2022/09/12 09:57:35;;;;;;;1.70;0.22;;;;;;;25.38;100.00;99352.91;7393624;19;20343;-58
2022/09/12 10:00:30;;;;;;;1.48;0.77;;;;;;;25.37;100.00;99355.00;7393299;19;20011;-57
2022/09/12 10:03:09;;;;;;;2.45;0.28;;;;;;;25.42;100.00;99344.72;7394149;19;20010;-57
2022/09/12 10:05:46;;;;;;;0.45;0.20;;;;;;;25.73;100.00;99353.59;7397780;19;20038;-57
2022/09/12 10:08:34;;;;;;;1.45;0.50;;;;;;;25.86;100.00;99347.50;7390468;19;20074;-58
2022/09/12 10:11:08;;;;;;;0.90;0.10;;;;;;;25.80;100.00;99349.84;7398165;19;20014;-57
2022/09/12 10:13:39;;;;;;;1.60;0.35;;;;;;;25.94;100.00;99348.88;7389305;19;20006;-58
2022/09/12 10:16:20;;;;;;;1.80;0.50;;;;;;;25.95;100.00;99341.81;7397896;19;20018;-58
2022/09/12 10:18:52;;;;;;;1.65;0.45;;;;;;;26.00;100.00;99335.06;7394302;19;20022;-57
2022/09/12 10:21:21;;;;;;;2.92;0.40;;;;;;;26.02;100.00;99338.09;7391942;19;20018;-58
2022/09/12 10:23:59;;;;;;;1.70;0.40;;;;;;;26.08;100.00;99324.31;7397522;19;20043;-58
2022/09/12 10:26:27;;;;;;;1.92;0.47;;;;;;;26.17;100.00;99328.53;7394230;19;20006;-58
2022/09/12 10:28:54;;;;;;;4.35;0.30;;;;;;;26.15;100.00;99331.25;7394739;19;20017;-57
2022/09/12 10:31:34;;;;;;;6.03;0.57;;;;;;;26.12;100.00;99321.00;7393534;19;20006;-58
2022/09/12 10:34:00;;;;;;;1.70;0.43;;;;;;;26.19;100.00;99331.53;7392241;19;20021;-58
2022/09/12 10:36:37;;;;;;;0.98;0.10;;;;;;;26.24;100.00;99325.56;7393268;19;20035;-58
2022/09/12 10:39:04;;;;;;;1.08;0.60;;;;;;;26.31;100.00;99329.63;7393569;19;20018;-58
2022/09/12 10:41:39;;;;;;;3.78;0.25;;;;;;;26.46;100.00;99323.66;7395858;19;20052;-58
2022/09/12 10:44:29;;;;;;;1.40;0.57;;;;;;;26.67;100.00;99325.91;7394232;19;20094;-58
2022/09/12 10:46:57;;;;;;;0.40;0.20;;;;;;;26.71;100.00;99326.97;7393725;19;20356;-58
2022/09/12 10:49:36;;;;;;;1.65;0.40;;;;;;;26.82;100.00;99320.69;7393238;19;20030;-58
2022/09/12 10:52:20;;;;;;;0.25;0.10;;;;;;;26.71;100.00;99326.97;7392251;19;20500;-58
2022/09/12 10:54:46;;;;;;;2.65;0.20;;;;;;;26.83;100.00;99322.16;7392971;19;20018;-58
2022/09/12 10:57:18;;;;;;;1.17;0.40;;;;;;;26.87;100.00;99327.44;7392978;19;20011;-58
2022/09/12 11:00:16;;;;;;;1.80;0.38;;;;;;;26.78;100.00;99328.97;7391627;19;20019;-59
2022/09/12 11:03:01;;;;;;;2.60;0.30;;;;;;;26.58;100.00;99324.56;7392894;19;20153;-58
2022/09/12 11:05:36;;;;;;;0.95;0.10;;;;;;;26.37;100.00;99324.38;7395532;19;20007;-58
2022/09/12 11:08:12;;;;;;;0.45;0.30;;;;;;;26.44;100.00;99332.06;7392616;19;20035;-58
2022/09/12 11:10:44;;;;;;;3.08;0.50;;;;;;;26.44;100.00;99337.03;7394416;19;20027;-58
2022/09/12 11:13:23;;;;;;;1.13;0.20;;;;;;;26.46;100.00;99329.34;7397292;19;20562;-58
2022/09/12 11:16:14;;;;;;;0.40;0.15;;;;;;;26.53;100.00;99328.44;7396056;19;20010;-58
2022/09/12 11:18:49;;;;;;;0.43;0.20;;;;;;;26.46;100.00;99328.59;7392535;19;20070;-58
2022/09/12 11:21:31;;;;;;;0.25;0.10;;;;;;;26.55;100.00;99314.31;7390198;19;20099;-59
2022/09/12 11:24:11;;;;;;;0.28;0.20;;;;;;;26.46;100.00;99309.38;7393654;19;20015;-56
2022/09/12 11:27:05;;;;;;;0.57;0.20;;;;;;;26.54;100.00;99317.78;7391422;19;20018;-56
2022/09/12 11:29:49;;;;;;;1.13;0.28;;;;;;;26.53;100.00;99325.59;7391210;19;20007;-57
2022/09/12 11:32:39;;;;;;;0.50;0.40;;;;;;;26.78;100.00;99319.63;7390932;19;20514;-56
2022/09/12 11:35:14;;;;;;;0.20;0.10;;;;;;;26.93;100.00;99320.09;7393162;19;20605;-56
2022/09/12 11:37:49;;;;;;;0.63;0.30;;;;;;;27.05;100.00;99331.63;7391535;19;20017;-57
2022/09/12 11:40:26;;;;;;;0.75;0.10;;;;;;;26.86;100.00;99326.69;7390802;19;20010;-57
2022/09/12 11:42:58;;;;;;;0.63;0.10;;;;;;;26.73;100.00;99330.00;7391132;19;20467;-57
2022/09/12 11:45:43;;;;;;;0.17;0.10;;;;;;;26.71;100.00;99332.69;7392698;19;20458;-57
2022/09/12 11:48:32;;;;;;;3.45;0.20;;;;;;;26.78;100.00;99331.06;7391471;19;20011;-57
2022/09/12 11:51:01;;;;;;;0.20;0.00;;;;;;;26.60;100.00;99327.56;7391442;19;20018;-59
2022/09/12 11:53:33;;;;;;;0.57;0.10;;;;;;;26.57;100.00;99323.06;7391430;19;20018;-57
2022/09/12 11:56:08;;;;;;;0.98;0.32;;;;;;;26.44;100.00;99337.78;7394964;19;20010;-59